Terminal Aerodrome Forecast
Issued by NWS Twin Cities, MN

Home | Current Version | Previous Version | Text Only | Print | Product List | Glossary Off
Versions: 1 2 3 4 5 6 7 8 9 10 11 12 13 14 15 16 17 18 19

697
FTUS43 KMPX 241505 AAA
TAFEAU
TAF AMD
KEAU 241505Z 2415/2512 22007KT P6SM BKN019 OVC120
      TEMPO 2415/2418 SCT022 BKN120
     FM241800 23004KT P6SM SCT030 BKN250
     FM250000 12003KT P6SM BKN150=

USA.gov is the U.S. government's official web portal to all federal, state and local government web resources and services.